Huvudsida
METAR-TAF:

METAR-TAF

Flygplatser :

Capo Mele

Andora, Italien

latitud: 43-57N, longitud: 008-10E, höjd: 220 m

Aktuellt väderrapport

Denna rapport gjordes för 44 minuter sedan, klockan 07:55 UTC
Vind 9 kt från väst/sydväst
Temperatur 11°C
Fuktighet 87%
Tryck 1030 hPa
Sikt 10 km eller mer
Inga moln under 1 500 m eller inga cumulonimbus

METAR: LIMU 220755Z 24009KT CAVOK 11/09 Q1030 RMK FEW FEW200 QUK 2 QUL 1 S VIS MAR 25 KM VIS MIN 9999

Tid: 09:39 (08:39 UTC)


TAF: saknas

Aktuella väderrapporter och prognoser från 4000 flygplatser (METAR- och TAF-rapporter).

De tillgängliga stationerna syns som gula och röda prickar på kartan.

För musen över prickarna för att se namnen på stationerna.

Klicka sedan för att få väderrapporter och prognoser.

För att ändra kartan: Klicka på de gröna knapparna med ett svart kors på för att zooma in; den gröna knappen med ett streck på för att zooma ut; eller på de gröna pilarna för angränsande kartor.


METAR-TAF: